Aldelta — 3FTO8 — position and weather

sailwx.info

Track history (hours):
 
Tides and Currents Weather Stations Pressure Air Temp Water Temp Dewpoint Dewpoint Depression Visibility Wind Speed Wind Dir Waves Ship Positions

Aldelta

Last reported at 2018-Feb-15 17:31 UTC. Time now 2018-Feb-20 08:05 UTC.
Position N 29°12' W 014°35'.

Length 121 m; draft 6.7 m.

Type: Other ship. MMSI: 356547000.

Date/timePositionNaut miles runAvg speedWind from/ knotsBaromVisibWave heightAir tempDewpointWater temp
2018-Feb-15 17:31N 29°12' W 014°35'510.6
2018-Feb-15 17:04N 29°08' W 014°38'110.8
2018-Feb-15 16:56N 29°07' W 014°40'1510.9
2018-Feb-15 15:34N 28°55' W 014°49'210.9
2018-Feb-15 15:24N 28°53' W 014°50'411.0
2018-Feb-15 15:00N 28°49' W 014°52'611.1
2018-Feb-15 14:30N 28°44' W 014°55'611.2
2018-Feb-15 13:59N 28°39' W 014°58'511.1
2018-Feb-15 13:30N 28°35' W 015°02'510.8
2018-Feb-15 13:00N 28°31' W 015°05'510.4
2018-Feb-15 12:30N 28°26' W 015°09'5 9.7
2018-Feb-15 12:00N 28°23' W 015°12'3 6.9
2018-Feb-15 11:30N 28°20' W 015°14'3 6.5
2018-Feb-15 11:00N 28°17' W 015°16'3 6.4
2018-Feb-15 10:30N 28°14' W 015°18'3 6.0
2018-Feb-15 10:00N 28°11' W 015°19'3 5.9
2018-Feb-15 09:30N 28°08' W 015°20'2 3.2
2018-Feb-15 09:00N 28°07' W 015°21'0 0.4
2018-Feb-15 08:30N 28°07' W 015°21'0 0.7
2018-Feb-15 08:00N 28°07' W 015°20'2 3.2
2018-Feb-15 07:30N 28°06' W 015°19'5 8.8
2018-Feb-15 06:57N 28°02' W 015°16'4 9.7
2018-Feb-15 06:30N 27°57' W 015°15'5 9.5
2018-Feb-15 06:00N 27°53' W 015°15'4 9.3
2018-Feb-15 05:31N 27°48' W 015°15'4 8.2
2018-Feb-15 04:59N 27°44' W 015°16'  
Track history (hours):
 
Tides and Currents Weather Stations Pressure Air Temp Water Temp Dewpoint Dewpoint Depression Visibility Wind Speed Wind Dir Waves Ship Positions

Aldelta

Last reported at 2018-Feb-15 17:31 UTC. Time now 2018-Feb-20 08:05 UTC.
Position N 29°12' W 014°35'.

Length 121 m; draft 6.7 m.

Type: Other ship. MMSI: 356547000.

Date/timePositionNaut miles runAvg speedWind from/ knotsBaromVisibWave heightAir tempDewpointWater temp
2018-Feb-15 17:31N 29°12' W 014°35'510.6
2018-Feb-15 17:04N 29°08' W 014°38'110.8
2018-Feb-15 16:56N 29°07' W 014°40'1510.9
2018-Feb-15 15:34N 28°55' W 014°49'210.9
2018-Feb-15 15:24N 28°53' W 014°50'411.0
2018-Feb-15 15:00N 28°49' W 014°52'611.1
2018-Feb-15 14:30N 28°44' W 014°55'611.2
2018-Feb-15 13:59N 28°39' W 014°58'511.1
2018-Feb-15 13:30N 28°35' W 015°02'510.8
2018-Feb-15 13:00N 28°31' W 015°05'510.4
2018-Feb-15 12:30N 28°26' W 015°09'5 9.7
2018-Feb-15 12:00N 28°23' W 015°12'3 6.9
2018-Feb-15 11:30N 28°20' W 015°14'3 6.5
2018-Feb-15 11:00N 28°17' W 015°16'3 6.4
2018-Feb-15 10:30N 28°14' W 015°18'3 6.0
2018-Feb-15 10:00N 28°11' W 015°19'3 5.9
2018-Feb-15 09:30N 28°08' W 015°20'2 3.2
2018-Feb-15 09:00N 28°07' W 015°21'0 0.4
2018-Feb-15 08:30N 28°07' W 015°21'0 0.7
2018-Feb-15 08:00N 28°07' W 015°20'2 3.2
2018-Feb-15 07:30N 28°06' W 015°19'5 8.8
2018-Feb-15 06:57N 28°02' W 015°16'4 9.7
2018-Feb-15 06:30N 27°57' W 015°15'5 9.5
2018-Feb-15 06:00N 27°53' W 015°15'4 9.3
2018-Feb-15 05:31N 27°48' W 015°15'4 8.2
2018-Feb-15 04:59N 27°44' W 015°16'  

Dump ship's entire track history